Time;durP1;ratioP1;P1;durP2;ratioP2;P2;SDS_P1;SDS_P2;PMS_P1;PMS_P2;Temp;Humidity;BMP_temperature;BMP_pressure;BME280_temperature;BME280_humidity;BME280_pressure;Samples;Min_cycle;Max_cycle;Signal;HPM_P1;HPM_P2
2022/08/19 00:01:59;;;;;;;5.85;5.25;;;20.20;99.90;;;;;;5021651;28;20481;-78
2022/08/19 00:04:30;;;;;;;11.65;6.28;;;20.10;99.90;;;;;;5022680;28;20607;-79
2022/08/19 00:06:57;;;;;;;8.48;5.82;;;20.10;99.90;;;;;;5036383;28;20079;-80
2022/08/19 00:09:24;;;;;;;9.07;5.90;;;20.20;99.90;;;;;;5037358;28;20478;-78
2022/08/19 00:11:53;;;;;;;6.55;5.95;;;20.10;99.90;;;;;;5037077;28;20136;-79
2022/08/19 00:14:20;;;;;;;6.93;6.22;;;20.10;99.90;;;;;;5022371;28;20544;-79
2022/08/19 00:16:48;;;;;;;9.93;7.15;;;20.20;99.90;;;;;;5022607;28;20136;-79
2022/08/19 00:19:15;;;;;;;15.45;6.85;;;20.20;99.90;;;;;;5023201;28;20050;-79
2022/08/19 00:21:43;;;;;;;10.32;6.63;;;20.20;99.90;;;;;;5022489;28;20046;-79
2022/08/19 00:24:12;;;;;;;9.70;6.95;;;20.20;99.90;;;;;;5021046;28;20526;-79
2022/08/19 00:26:39;;;;;;;7.20;6.50;;;20.20;99.90;;;;;;5034416;28;20056;-78
2022/08/19 00:29:08;;;;;;;8.07;6.95;;;20.20;99.90;;;;;;5033609;28;20078;-79
2022/08/19 00:31:36;;;;;;;9.52;6.80;;;20.20;99.90;;;;;;5031123;28;20069;-78
2022/08/19 00:34:03;;;;;;;9.18;6.47;;;20.20;99.90;;;;;;5031780;28;20503;-79
2022/08/19 00:36:32;;;;;;;7.80;6.03;;;20.20;99.90;;;;;;5031129;28;20057;-79
2022/08/19 00:39:00;;;;;;;8.75;6.82;;;20.20;99.90;;;;;;5030403;28;20131;-79
2022/08/19 00:41:27;;;;;;;9.05;6.53;;;20.30;99.90;;;;;;5035705;28;20078;-78
2022/08/19 00:44:12;;;;;;;7.38;6.43;;;20.30;99.90;;;;;;5032271;28;20080;-79
2022/08/19 00:46:43;;;;;;;7.15;6.28;;;20.30;99.90;;;;;;5032413;28;20092;-79
2022/08/19 00:49:25;;;;;;;8.27;6.32;;;20.30;99.90;;;;;;5021662;28;20064;-79
2022/08/19 00:52:00;;;;;;;8.25;6.28;;;20.30;99.90;;;;;;5021317;28;20508;-79
2022/08/19 00:54:28;;;;;;;10.60;6.68;;;20.30;99.90;;;;;;5024119;28;20049;-79
2022/08/19 00:56:59;;;;;;;7.00;6.35;;;20.30;99.90;;;;;;5025068;28;20079;-79
2022/08/19 00:59:27;;;;;;;8.65;6.85;;;20.30;99.90;;;;;;5024572;28;20512;-78
2022/08/19 01:02:16;;;;;;;7.85;7.05;;;20.30;99.90;;;;;;5024785;28;20046;-79
2022/08/19 01:04:42;;;;;;;10.10;6.80;;;20.30;99.90;;;;;;5019570;28;20073;-79
2022/08/19 01:07:09;;;;;;;11.40;7.30;;;20.30;99.90;;;;;;5020645;28;20416;-79
2022/08/19 01:09:43;;;;;;;8.07;6.95;;;20.30;99.90;;;;;;5027722;28;20077;-79
2022/08/19 01:12:10;;;;;;;10.05;8.00;;;20.30;99.90;;;;;;5031148;28;20109;-79
2022/08/19 01:14:39;;;;;;;10.35;7.15;;;20.30;99.90;;;;;;5019004;28;20424;-79
2022/08/19 01:17:08;;;;;;;7.55;6.68;;;20.30;99.90;;;;;;5018130;28;20512;-78
2022/08/19 01:19:40;;;;;;;10.65;7.35;;;20.30;99.90;;;;;;5026787;28;20080;-79
2022/08/19 01:22:31;;;;;;;10.82;7.63;;;20.30;99.90;;;;;;5017115;28;20057;-79
2022/08/19 01:25:00;;;;;;;8.70;7.90;;;20.20;99.90;;;;;;5018444;28;20178;-79
2022/08/19 01:27:36;;;;;;;9.32;7.30;;;20.20;99.90;;;;;;5027034;28;20057;-79
2022/08/19 01:30:16;;;;;;;8.98;8.02;;;20.20;99.90;;;;;;5025987;28;20056;-79
2022/08/19 01:32:43;;;;;;;10.40;7.07;;;20.20;99.90;;;;;;5023807;28;20065;-79
2022/08/19 01:35:11;;;;;;;7.88;7.07;;;20.20;99.90;;;;;;5024763;28;20046;-79
2022/08/19 01:37:54;;;;;;;12.15;7.50;;;20.20;99.90;;;;;;5030323;28;20089;-78
2022/08/19 01:40:24;;;;;;;9.45;8.07;;;20.20;99.90;;;;;;5026765;28;20053;-79
2022/08/19 01:42:53;;;;;;;8.85;7.60;;;20.20;99.90;;;;;;5024285;28;20096;-78
2022/08/19 01:45:22;;;;;;;12.13;7.47;;;20.20;99.90;;;;;;5022423;28;20053;-77
2022/08/19 01:47:50;;;;;;;9.85;7.60;;;20.10;99.90;;;;;;5026148;28;20049;-78
2022/08/19 01:50:27;;;;;;;8.23;7.28;;;20.10;99.90;;;;;;5022334;28;20103;-78
2022/08/19 01:52:54;;;;;;;11.35;7.97;;;20.10;99.90;;;;;;5022718;28;20550;-77
2022/08/19 01:55:33;;;;;;;11.25;8.60;;;20.00;99.90;;;;;;5022822;28;20049;-77
2022/08/19 01:58:02;;;;;;;15.93;8.40;;;20.00;99.90;;;;;;5021670;28;20046;-78
2022/08/19 02:00:31;;;;;;;11.35;7.43;;;20.00;99.90;;;;;;5020813;28;20427;-77
2022/08/19 02:02:59;;;;;;;8.98;7.82;;;19.90;99.90;;;;;;5021906;28;20073;-78
2022/08/19 02:05:25;;;;;;;9.10;8.18;;;19.90;99.90;;;;;;5020939;28;20088;-78
2022/08/19 02:07:52;;;;;;;9.88;8.88;;;19.90;99.90;;;;;;5023750;28;20124;-78
2022/08/19 02:10:21;;;;;;;11.68;8.32;;;19.90;99.90;;;;;;5023718;28;20080;-77
2022/08/19 02:12:49;;;;;;;9.52;8.30;;;19.90;99.90;;;;;;5025140;28;20081;-77
2022/08/19 02:15:19;;;;;;;9.60;7.82;;;19.90;99.90;;;;;;5024862;28;20452;-78
2022/08/19 02:17:46;;;;;;;9.27;8.25;;;19.80;99.90;;;;;;5019317;28;20113;-77
2022/08/19 02:20:14;;;;;;;11.43;7.78;;;19.90;99.90;;;;;;5019568;28;20410;-78
2022/08/19 02:22:42;;;;;;;9.30;8.25;;;19.80;99.90;;;;;;5021199;28;20096;-78
2022/08/19 02:25:13;;;;;;;9.40;8.45;;;19.90;99.90;;;;;;5034057;28;20041;-78
2022/08/19 02:27:41;;;;;;;9.20;8.35;;;19.90;99.90;;;;;;5031485;28;20407;-79
2022/08/19 02:30:12;;;;;;;10.48;9.00;;;19.80;99.90;;;;;;5031989;28;20084;-79
2022/08/19 02:32:40;;;;;;;9.23;8.32;;;19.70;99.90;;;;;;5021670;28;20054;-79
2022/08/19 02:35:12;;;;;;;9.15;8.25;;;19.70;99.90;;;;;;5018951;28;20127;-78
2022/08/19 02:40:25;;;;;;;10.85;7.90;;;19.70;99.90;;;;;;5022135;28;20046;-77
2022/08/19 02:42:52;;;;;;;11.27;8.52;;;19.70;99.90;;;;;;5020158;28;20045;-78
2022/08/19 02:45:19;;;;;;;10.70;8.95;;;19.80;99.90;;;;;;5021521;28;20045;-78
2022/08/19 02:47:46;;;;;;;9.90;8.70;;;19.80;99.90;;;;;;5023336;28;20048;-79
2022/08/19 02:50:13;;;;;;;12.02;9.00;;;19.90;99.90;;;;;;5022075;28;20056;-78
2022/08/19 02:52:40;;;;;;;9.80;8.40;;;19.90;99.90;;;;;;5022029;28;20096;-78
2022/08/19 02:55:08;;;;;;;10.27;8.07;;;19.70;99.90;;;;;;5033581;28;20093;-79
2022/08/19 02:57:35;;;;;;;12.70;9.07;;;19.80;99.90;;;;;;5034582;28;20104;-78
2022/08/19 03:00:05;;;;;;;9.23;8.30;;;19.80;99.90;;;;;;5033815;28;20107;-78
2022/08/19 03:02:32;;;;;;;;;;;19.80;99.90;;;;;;5021973;28;20082;-78
2022/08/19 03:04:59;;;;;;;12.10;8.65;;;19.80;99.90;;;;;;5021276;28;19960;-79
2022/08/19 03:07:25;;;;;;;9.90;8.73;;;19.80;99.90;;;;;;5021447;28;20069;-78
2022/08/19 03:09:52;;;;;;;12.70;9.48;;;19.80;99.90;;;;;;5019954;28;20081;-79
2022/08/19 03:12:19;;;;;;;10.43;8.75;;;19.80;99.90;;;;;;5019788;28;20112;-80
2022/08/19 03:14:46;;;;;;;10.55;9.45;;;19.80;99.90;;;;;;5033366;28;20529;-79
2022/08/19 03:17:13;;;;;;;9.50;8.57;;;19.80;99.90;;;;;;5020381;28;20053;-80
2022/08/19 03:19:40;;;;;;;13.30;9.75;;;19.80;99.90;;;;;;5020289;28;20078;-79
2022/08/19 03:22:07;;;;;;;12.50;10.18;;;19.80;99.90;;;;;;5020209;28;20046;-80
2022/08/19 03:24:34;;;;;;;10.60;9.50;;;19.80;99.90;;;;;;5018809;28;20085;-79
2022/08/19 03:27:01;;;;;;;14.43;10.00;;;19.90;99.90;;;;;;5029677;28;20060;-78
2022/08/19 03:29:31;;;;;;;13.32;10.45;;;19.80;99.90;;;;;;5018723;28;20124;-79
2022/08/19 03:32:00;;;;;;;10.93;9.65;;;19.80;99.90;;;;;;5017888;28;20057;-80
2022/08/19 03:34:31;;;;;;;13.18;10.55;;;19.80;99.90;;;;;;5036548;28;20569;-79
2022/08/19 03:37:05;;;;;;;10.63;9.55;;;19.90;99.90;;;;;;5035011;28;20259;-78
2022/08/19 03:39:31;;;;;;;12.00;10.80;;;19.90;99.90;;;;;;5035870;28;20423;-79
2022/08/19 03:42:02;;;;;;;11.32;10.13;;;19.80;99.90;;;;;;5034774;28;20045;-79
2022/08/19 03:44:48;;;;;;;16.88;10.25;;;19.80;99.90;;;;;;5025622;28;20503;-79
2022/08/19 03:47:16;;;;;;;12.50;9.95;;;20.00;99.90;;;;;;5023078;28;20046;-78
2022/08/19 03:49:43;;;;;;;10.75;9.68;;;19.90;99.90;;;;;;5022775;28;20393;-79
2022/08/19 03:52:10;;;;;;;12.23;11.05;;;19.90;99.90;;;;;;5021694;28;20614;-79
2022/08/19 03:54:38;;;;;;;13.25;10.93;;;19.90;99.90;;;;;;5021958;28;20156;-79
2022/08/19 03:57:05;;;;;;;13.70;12.30;;;19.90;99.90;;;;;;5021061;28;20053;-79
2022/08/19 03:59:35;;;;;;;12.98;11.65;;;19.90;99.90;;;;;;5019099;28;20046;-79
2022/08/19 04:02:08;;;;;;;18.47;12.40;;;19.90;99.90;;;;;;5018240;28;20050;-80
2022/08/19 04:04:37;;;;;;;13.73;11.30;;;19.90;99.90;;;;;;5018148;28;20277;-79
2022/08/19 04:07:03;;;;;;;19.73;12.25;;;19.90;99.90;;;;;;5018576;28;20077;-79
2022/08/19 04:09:30;;;;;;;14.32;11.73;;;19.90;99.90;;;;;;5022828;28;20077;-79
2022/08/19 04:11:58;;;;;;;12.63;11.38;;;19.90;99.90;;;;;;5022632;28;20045;-79
2022/08/19 04:14:28;;;;;;;13.23;11.93;;;19.90;99.90;;;;;;5019324;28;20092;-79
2022/08/19 04:16:56;;;;;;;13.93;11.27;;;19.90;99.90;;;;;;5019571;28;20089;-80
2022/08/19 04:19:23;;;;;;;12.75;11.50;;;19.90;99.90;;;;;;5019489;28;20477;-80
2022/08/19 04:21:51;;;;;;;13.20;11.88;;;19.80;99.90;;;;;;5026178;28;20048;-78
2022/08/19 04:24:20;;;;;;;17.42;12.30;;;19.80;99.90;;;;;;5029341;28;20046;-78
2022/08/19 04:26:47;;;;;;;16.15;11.80;;;19.80;99.90;;;;;;5024200;28;20483;-77
2022/08/19 04:29:21;;;;;;;11.93;10.70;;;19.70;99.90;;;;;;5023418;28;20081;-78
2022/08/19 04:31:49;;;;;;;12.82;11.43;;;19.80;99.90;;;;;;5019512;28;20093;-78
2022/08/19 04:34:22;;;;;;;13.07;11.13;;;19.80;99.90;;;;;;5027086;28;20470;-78
2022/08/19 04:36:50;;;;;;;13.38;12.00;;;19.80;99.90;;;;;;5025628;28;20415;-78
2022/08/19 04:39:21;;;;;;;13.40;12.00;;;19.80;99.90;;;;;;5026686;28;20080;-78
2022/08/19 04:44:34;;;;;;;16.10;10.63;;;19.70;99.90;;;;;;5030087;28;19967;-79
2022/08/19 04:47:06;;;;;;;11.95;10.65;;;19.80;99.90;;;;;;5030999;28;20057;-80
2022/08/19 04:49:36;;;;;;;11.15;10.15;;;19.80;99.90;;;;;;5030401;28;20132;-79
2022/08/19 04:52:03;;;;;;;12.30;9.85;;;19.70;99.90;;;;;;5031344;28;20081;-79
2022/08/19 04:54:30;;;;;;;10.43;9.38;;;19.70;99.90;;;;;;5024451;28;20085;-79
2022/08/19 04:57:09;;;;;;;10.70;9.55;;;19.70;99.90;;;;;;5029783;28;20060;-78
2022/08/19 04:59:38;;;;;;;11.00;9.20;;;19.70;99.90;;;;;;5029232;28;20517;-79
2022/08/19 05:02:07;;;;;;;10.05;9.00;;;19.70;99.90;;;;;;5029933;28;20049;-79
2022/08/19 05:04:38;;;;;;;10.43;9.38;;;19.70;99.90;;;;;;5025681;28;20050;-79
2022/08/19 05:07:07;;;;;;;11.95;9.27;;;19.80;99.90;;;;;;5029361;28;20087;-79
2022/08/19 05:09:34;;;;;;;10.32;9.25;;;19.80;99.90;;;;;;5024427;28;20041;-79
2022/08/19 05:12:21;;;;;;;10.00;8.90;;;19.80;99.90;;;;;;5028116;28;20064;-78
2022/08/19 05:14:56;;;;;;;11.95;9.90;;;19.90;99.90;;;;;;5021538;28;20046;-80
2022/08/19 05:17:23;;;;;;;11.63;8.70;;;19.90;99.90;;;;;;5028991;28;20046;-79
2022/08/19 05:22:40;;;;;;;9.57;8.68;;;19.90;99.90;;;;;;5024849;28;20777;-79
2022/08/19 05:25:12;;;;;;;9.40;8.50;;;19.90;99.90;;;;;;5030937;28;20069;-78
2022/08/19 05:27:41;;;;;;;10.60;8.57;;;19.90;99.90;;;;;;5024084;28;20064;-78
2022/08/19 05:30:08;;;;;;;10.95;8.38;;;19.90;99.90;;;;;;5025698;28;20080;-79
2022/08/19 05:32:35;;;;;;;11.98;9.95;;;20.00;99.90;;;;;;5024374;28;20045;-78
2022/08/19 05:35:02;;;;;;;10.25;9.18;;;20.00;99.90;;;;;;5026359;28;20084;-79
2022/08/19 05:37:29;;;;;;;9.75;8.70;;;20.00;99.90;;;;;;5026157;28;20057;-78
2022/08/19 05:39:55;;;;;;;11.27;9.30;;;20.00;99.90;;;;;;5026028;28;20056;-78
2022/08/19 05:42:23;;;;;;;10.57;9.13;;;20.00;99.90;;;;;;5023504;28;20045;-79
2022/08/19 05:44:50;;;;;;;11.68;9.70;;;19.90;99.90;;;;;;5027879;28;20132;-79
2022/08/19 05:47:19;;;;;;;10.60;9.60;;;19.90;99.90;;;;;;5025725;28;20049;-79
2022/08/19 05:49:47;;;;;;;10.38;9.27;;;19.90;99.90;;;;;;5024594;28;20072;-79
2022/08/19 05:52:18;;;;;;;10.77;9.65;;;20.00;99.90;;;;;;5026126;28;20056;-78
2022/08/19 05:54:54;;;;;;;12.65;9.95;;;20.00;99.90;;;;;;5023721;28;20062;-78
2022/08/19 05:57:22;;;;;;;16.75;8.52;;;20.00;99.90;;;;;;5025465;28;20595;-79
2022/08/19 05:59:51;;;;;;;10.20;8.98;;;20.00;99.90;;;;;;5032141;28;20050;-78
2022/08/19 06:02:25;;;;;;;11.40;9.15;;;20.10;99.90;;;;;;5028443;28;20622;-79
2022/08/19 06:04:52;;;;;;;10.10;9.10;;;20.10;99.90;;;;;;5032148;28;20052;-80
2022/08/19 06:07:19;;;;;;;10.55;9.20;;;20.10;99.90;;;;;;5031304;28;20105;-80
2022/08/19 06:09:46;;;;;;;13.00;9.73;;;20.10;99.90;;;;;;5024595;28;20045;-78
2022/08/19 06:12:31;;;;;;;11.02;9.10;;;20.20;99.90;;;;;;5024391;28;20076;-77
2022/08/19 06:14:59;;;;;;;12.90;9.70;;;20.20;99.90;;;;;;5022401;28;20500;-78
2022/08/19 06:17:29;;;;;;;10.57;9.47;;;20.20;99.90;;;;;;5024956;28;20050;-78
2022/08/19 06:19:58;;;;;;;11.02;9.82;;;20.20;99.90;;;;;;5026168;28;20484;-78
2022/08/19 06:22:25;;;;;;;13.32;9.77;;;20.30;99.90;;;;;;5026116;28;20045;-78
2022/08/19 06:24:53;;;;;;;10.95;8.75;;;20.30;99.90;;;;;;5026519;28;20089;-78
2022/08/19 06:27:21;;;;;;;16.85;10.05;;;20.30;99.90;;;;;;5025351;28;20042;-78
2022/08/19 06:29:47;;;;;;;11.57;10.07;;;20.30;99.90;;;;;;5024166;28;20049;-79
2022/08/19 06:32:18;;;;;;;12.50;10.00;;;20.40;99.90;;;;;;5018661;28;20488;-79
2022/08/19 06:34:45;;;;;;;11.13;9.95;;;20.40;99.90;;;;;;5018753;28;20134;-79
2022/08/19 06:37:12;;;;;;;11.10;9.82;;;20.40;99.90;;;;;;5023193;28;20077;-79
2022/08/19 06:39:41;;;;;;;14.85;10.82;;;20.40;99.90;;;;;;5024008;28;20060;-79
2022/08/19 06:42:11;;;;;;;11.20;10.07;;;20.50;99.90;;;;;;5023081;28;20466;-78
2022/08/19 06:44:41;;;;;;;13.68;11.30;;;20.50;99.90;;;;;;5033526;28;20068;-78
2022/08/19 06:47:12;;;;;;;13.55;10.70;;;20.40;99.90;;;;;;5034104;28;20050;-78
2022/08/19 06:49:48;;;;;;;13.07;11.02;;;20.60;99.90;;;;;;5022860;28;20061;-78
2022/08/19 06:52:15;;;;;;;10.68;9.57;;;20.60;99.90;;;;;;5022260;28;20050;-79
2022/08/19 06:54:42;;;;;;;11.60;10.35;;;20.70;99.90;;;;;;5023107;28;20052;-78
2022/08/19 06:57:21;;;;;;;11.25;10.10;;;20.70;99.90;;;;;;5031885;28;20144;-79
2022/08/19 06:59:48;;;;;;;11.32;10.23;;;20.80;99.90;;;;;;5030674;28;20160;-79
2022/08/19 07:02:14;;;;;;;11.25;10.15;;;20.70;99.90;;;;;;5034518;28;20050;-79
2022/08/19 07:04:41;;;;;;;11.57;9.90;;;20.80;99.90;;;;;;5030576;28;20490;-79
2022/08/19 07:07:12;;;;;;;10.95;9.77;;;20.80;99.90;;;;;;5020860;28;20474;-78
2022/08/19 07:09:48;;;;;;;12.95;9.90;;;20.80;99.90;;;;;;5017168;28;20049;-78
2022/08/19 07:12:34;;;;;;;11.43;10.23;;;20.80;99.90;;;;;;5021355;28;20050;-78
2022/08/19 07:15:05;;;;;;;12.18;10.88;;;20.80;99.90;;;;;;5034173;28;20054;-79
2022/08/19 07:17:32;;;;;;;11.45;10.30;;;20.90;99.90;;;;;;5035962;28;20139;-78
2022/08/19 07:20:01;;;;;;;14.25;10.63;;;20.90;99.90;;;;;;5036129;28;20514;-79
2022/08/19 07:22:33;;;;;;;12.68;11.30;;;20.90;99.90;;;;;;5039505;28;20050;-79
2022/08/19 07:25:03;;;;;;;13.63;11.48;;;21.00;99.90;;;;;;5039918;28;20080;-79
2022/08/19 07:27:30;;;;;;;12.43;10.35;;;21.00;99.90;;;;;;5041281;28;20089;-79
2022/08/19 07:29:59;;;;;;;12.32;11.10;;;21.10;99.90;;;;;;5040241;28;20402;-79
2022/08/19 07:32:30;;;;;;;19.08;11.23;;;21.10;99.90;;;;;;5040988;28;20045;-79
2022/08/19 07:35:00;;;;;;;12.15;10.95;;;21.10;99.90;;;;;;5041126;28;20049;-79
2022/08/19 07:37:28;;;;;;;13.05;11.85;;;21.20;99.90;;;;;;5041084;28;20061;-78
2022/08/19 07:40:00;;;;;;;12.13;10.90;;;21.20;99.90;;;;;;5040664;28;20045;-79
2022/08/19 07:42:29;;;;;;;12.52;10.20;;;21.20;99.90;;;;;;5041032;28;20050;-79
2022/08/19 07:44:57;;;;;;;16.63;11.85;;;21.20;99.90;;;;;;5037920;28;20045;-80
2022/08/19 07:47:24;;;;;;;12.85;11.48;;;21.20;99.90;;;;;;5021538;28;20476;-79
2022/08/19 07:50:11;;;;;;;12.32;11.05;;;21.30;99.90;;;;;;5021999;28;20065;-79
2022/08/19 07:52:39;;;;;;;15.15;11.75;;;21.40;99.90;;;;;;5023328;28;20124;-79
2022/08/19 07:55:08;;;;;;;13.85;12.05;;;21.40;99.90;;;;;;5028060;28;20045;-79
2022/08/19 07:57:55;;;;;;;14.32;11.27;;;21.50;99.90;;;;;;5023353;28;20065;-79
2022/08/19 08:00:21;;;;;;;13.98;10.60;;;21.60;99.90;;;;;;5022662;28;20061;-80
2022/08/19 08:02:50;;;;;;;16.08;11.00;;;21.70;99.90;;;;;;5026104;28;20041;-80
2022/08/19 08:09:10;;;;;;;11.98;10.88;;;22.00;99.90;;;;;;5018414;28;20056;-78
2022/08/19 08:11:16;;;;;;;12.10;10.90;;;22.10;99.90;;;;;;5018591;28;20042;-78
2022/08/19 08:13:45;;;;;;;13.52;12.18;;;22.20;99.90;;;;;;5018815;28;20426;-78
2022/08/19 08:16:29;;;;;;;13.55;12.02;;;22.30;99.90;;;;;;5019864;28;20054;-78
2022/08/19 08:18:57;;;;;;;13.77;11.35;;;22.40;99.90;;;;;;5034630;28;20507;-79
2022/08/19 08:21:24;;;;;;;12.38;11.18;;;22.40;99.90;;;;;;5033294;28;20563;-79
2022/08/19 08:23:53;;;;;;;12.85;11.55;;;22.50;99.90;;;;;;5034917;28;20047;-79
2022/08/19 08:26:22;;;;;;;12.63;11.43;;;22.60;99.90;;;;;;5025025;28;20471;-80
2022/08/19 08:28:49;;;;;;;12.27;11.05;;;22.70;99.90;;;;;;5020509;28;20080;-79
2022/08/19 08:31:18;;;;;;;13.63;12.23;;;22.80;99.90;;;;;;5032351;28;20084;-79
2022/08/19 08:33:46;;;;;;;14.05;12.55;;;22.90;99.90;;;;;;5031684;28;20108;-79
2022/08/19 08:36:14;;;;;;;16.55;12.50;;;23.00;99.90;;;;;;5032115;28;20049;-80
2022/08/19 08:38:45;;;;;;;15.10;12.75;;;23.10;99.90;;;;;;5020277;28;20133;-78
2022/08/19 08:41:27;;;;;;;13.38;12.02;;;23.10;99.90;;;;;;5021241;28;20081;-78
2022/08/19 08:43:56;;;;;;;15.02;13.43;;;23.20;99.90;;;;;;5021190;28;20045;-79
2022/08/19 08:46:45;;;;;;;15.25;13.75;;;23.30;99.90;;;;;;5029647;28;20057;-80
2022/08/19 08:49:40;;;;;;;18.10;14.90;;;23.30;99.90;;;;;;5019893;28;20049;-79
2022/08/19 08:52:23;;;;;;;17.33;15.45;;;23.50;99.90;;;;;;5021840;28;20100;-79
2022/08/19 08:55:02;;;;;;;20.77;16.80;;;23.50;99.90;;;;;;5029442;28;20053;-79
2022/08/19 08:57:54;;;;;;;17.70;16.00;;;23.60;99.90;;;;;;5026350;28;20150;-79
2022/08/19 09:00:30;;;;;;;19.90;16.33;;;23.60;99.90;;;;;;5020868;28;20052;-78
2022/08/19 09:02:58;;;;;;;19.08;17.08;;;23.70;99.90;;;;;;5019239;28;20081;-78
2022/08/19 09:05:50;;;;;;;19.98;16.30;;;23.80;99.90;;;;;;5019452;28;20072;-78
2022/08/19 09:08:23;;;;;;;22.08;16.55;;;23.80;99.90;;;;;;5013473;28;20046;-78
2022/08/19 09:10:53;;;;;;;18.08;15.88;;;23.80;99.90;;;;;;5013636;28;20133;-79
2022/08/19 09:13:45;;;;;;;20.38;17.88;;;23.80;99.90;;;;;;5024576;28;20566;-79
2022/08/19 09:16:15;;;;;;;20.88;17.42;;;23.80;99.90;;;;;;5030278;28;20084;-79
2022/08/19 09:18:54;;;;;;;20.63;16.55;;;23.70;99.90;;;;;;5029992;28;20082;-79
2022/08/19 09:21:22;;;;;;;18.80;16.10;;;23.70;99.90;;;;;;5025485;28;20080;-79
2022/08/19 09:23:57;;;;;;;18.73;15.77;;;23.60;99.90;;;;;;5027906;28;20050;-79
2022/08/19 09:26:26;;;;;;;21.58;17.83;;;23.70;99.90;;;;;;5025696;28;20054;-79
2022/08/19 09:29:13;;;;;;;20.08;17.00;;;23.60;99.90;;;;;;5025513;28;20045;-79
2022/08/19 09:31:40;;;;;;;19.75;17.45;;;23.80;99.90;;;;;;5027258;28;20057;-78
2022/08/19 09:34:08;;;;;;;17.95;16.13;;;23.70;99.90;;;;;;5028884;28;20049;-79
2022/08/19 09:36:52;;;;;;;21.85;17.48;;;23.60;99.90;;;;;;5029977;28;20057;-79
2022/08/19 09:39:19;;;;;;;22.08;17.05;;;23.60;99.90;;;;;;5029572;28;20054;-79
2022/08/19 09:41:46;;;;;;;19.70;17.40;;;23.60;99.90;;;;;;5029042;28;20050;-79
2022/08/19 09:44:15;;;;;;;21.65;17.73;;;23.50;99.90;;;;;;5030045;28;20177;-80
2022/08/19 09:46:43;;;;;;;20.67;18.30;;;23.40;99.90;;;;;;5028782;28;20049;-79
2022/08/19 09:49:10;;;;;;;21.15;18.77;;;23.30;99.90;;;;;;5036153;28;20073;-79
2022/08/19 09:51:39;;;;;;;21.92;19.52;;;23.30;99.90;;;;;;5030023;28;20049;-79
2022/08/19 09:54:06;;;;;;;23.15;18.52;;;23.20;99.90;;;;;;5034758;28;20128;-79
2022/08/19 09:56:36;;;;;;;;;;;23.10;99.90;;;;;;5029876;28;20695;-79
2022/08/19 09:59:04;;;;;;;22.20;18.85;;;22.90;99.90;;;;;;5029204;28;19944;-79
2022/08/19 10:01:32;;;;;;;21.77;19.58;;;22.90;99.90;;;;;;5030060;28;20101;-79
2022/08/19 10:04:00;;;;;;;21.88;19.40;;;22.90;99.90;;;;;;5029506;28;20129;-79
2022/08/19 10:06:37;;;;;;;19.65;17.35;;;22.80;99.90;;;;;;5029942;28;20050;-79
2022/08/19 10:09:13;;;;;;;21.92;19.63;;;22.80;99.90;;;;;;5028790;28;20081;-78
2022/08/19 10:11:42;;;;;;;23.60;21.10;;;22.80;99.90;;;;;;5021568;28;20212;-79
2022/08/19 10:14:22;;;;;;;24.63;19.35;;;22.80;99.90;;;;;;5029440;28;20049;-79
2022/08/19 10:16:50;;;;;;;24.85;19.95;;;22.90;99.90;;;;;;5024497;28;20069;-79
2022/08/19 10:19:20;;;;;;;24.87;20.03;;;22.90;99.90;;;;;;5030971;28;20050;-79
2022/08/19 10:21:53;;;;;;;20.88;18.13;;;22.90;99.90;;;;;;5033063;28;20124;-80
2022/08/19 10:24:27;;;;;;;29.48;20.73;;;22.90;99.90;;;;;;5033931;28;20046;-79
2022/08/19 10:26:54;;;;;;;26.02;21.25;;;22.80;99.90;;;;;;5034521;28;20557;-79
2022/08/19 10:29:22;;;;;;;24.45;19.92;;;22.90;99.90;;;;;;5033656;28;20077;-79
2022/08/19 10:32:04;;;;;;;22.98;19.50;;;23.00;99.90;;;;;;5029751;28;20053;-78
2022/08/19 10:34:37;;;;;;;23.60;20.80;;;23.00;99.90;;;;;;5033577;28;20081;-78
2022/08/19 10:37:17;;;;;;;22.73;20.10;;;23.10;99.90;;;;;;5028269;28;20526;-79
2022/08/19 10:39:54;;;;;;;21.83;19.40;;;23.10;99.90;;;;;;5015161;28;20049;-78
2022/08/19 10:42:21;;;;;;;25.95;19.80;;;23.20;99.90;;;;;;5028699;28;20076;-79
2022/08/19 10:44:48;;;;;;;22.15;19.85;;;23.30;99.90;;;;;;5034773;28;20509;-78
2022/08/19 10:47:17;;;;;;;27.25;21.25;;;23.40;99.90;;;;;;5035287;28;20046;-78
2022/08/19 10:52:44;;;;;;;24.48;19.88;;;23.50;99.90;;;;;;5026102;28;20042;-78
2022/08/19 10:58:13;;;;;;;22.92;20.30;;;23.70;99.90;;;;;;5027562;28;20427;-78
2022/08/19 11:00:41;;;;;;;25.35;20.13;;;23.80;99.90;;;;;;5026781;28;20505;-78
2022/08/19 11:03:09;;;;;;;22.60;20.23;;;24.00;99.90;;;;;;5036813;28;20109;-78
2022/08/19 11:05:37;;;;;;;22.90;20.45;;;24.10;99.90;;;;;;5032840;28;20392;-79
2022/08/19 11:08:11;;;;;;;;;;;24.30;99.90;;;;;;5026348;28;20053;-78
2022/08/19 11:10:50;;;;;;;21.10;18.75;;;24.40;99.90;;;;;;5030268;28;19921;-78
2022/08/19 11:13:17;;;;;;;23.52;18.88;;;24.50;99.90;;;;;;5026616;28;20073;-77
2022/08/19 11:15:45;;;;;;;21.48;19.25;;;24.60;99.90;;;;;;5036098;28;20085;-79
2022/08/19 11:18:12;;;;;;;25.27;19.48;;;24.70;99.90;;;;;;5031718;28;20077;-78
2022/08/19 11:20:39;;;;;;;23.33;19.98;;;24.80;99.90;;;;;;5031873;28;20051;-77
2022/08/19 11:23:06;;;;;;;23.00;19.67;;;24.80;99.90;;;;;;5032233;28;20049;-78
2022/08/19 11:25:33;;;;;;;22.35;19.17;;;24.90;99.90;;;;;;5027823;28;20049;-78
2022/08/19 11:27:59;;;;;;;21.70;19.25;;;24.90;99.90;;;;;;5022151;28;20046;-78
2022/08/19 11:30:27;;;;;;;24.65;21.00;;;25.00;99.90;;;;;;5021555;28;20065;-79
2022/08/19 11:32:54;;;;;;;22.20;19.83;;;25.10;99.90;;;;;;5016863;28;20487;-78
2022/08/19 11:35:23;;;;;;;26.45;21.63;;;25.10;99.90;;;;;;5018289;28;20042;-79
2022/08/19 11:37:49;;;;;;;24.73;21.08;;;25.10;99.90;;;;;;5019728;28;20488;-80
2022/08/19 11:40:16;;;;;;;25.60;19.65;;;25.10;99.90;;;;;;5014285;28;20095;-80
2022/08/19 11:42:56;;;;;;;25.55;20.42;;;25.00;99.90;;;;;;5022888;28;20050;-80
2022/08/19 11:45:25;;;;;;;22.20;19.90;;;25.10;99.90;;;;;;5019369;28;20060;-78
2022/08/19 11:47:52;;;;;;;23.52;19.58;;;25.00;99.90;;;;;;5013418;28;20081;-77
2022/08/19 11:50:19;;;;;;;21.70;19.38;;;25.10;99.90;;;;;;5015908;28;20052;-79
2022/08/19 11:52:46;;;;;;;22.95;18.77;;;24.90;99.90;;;;;;5028481;28;20535;-78
2022/08/19 11:55:13;;;;;;;20.13;17.65;;;25.00;99.90;;;;;;5025439;28;20077;-79
2022/08/19 11:57:41;;;;;;;20.40;18.30;;;25.00;99.90;;;;;;5025202;28;20062;-82
2022/08/19 12:00:10;;;;;;;24.00;18.52;;;25.10;99.90;;;;;;5024835;28;20066;-81
2022/08/19 12:02:37;;;;;;;23.10;20.60;;;25.10;99.90;;;;;;5028254;28;20083;-81
2022/08/19 12:05:05;;;;;;;23.98;17.92;;;25.10;99.90;;;;;;5030652;28;20125;-82
2022/08/19 12:07:38;;;;;;;21.77;17.65;;;25.10;99.90;;;;;;5032076;28;20125;-81
2022/08/19 12:10:05;;;;;;;20.85;18.08;;;25.10;99.90;;;;;;5022046;28;20050;-82
2022/08/19 12:12:33;;;;;;;19.13;17.10;;;25.10;99.90;;;;;;5037866;28;20049;-81
2022/08/19 12:15:00;;;;;;;19.05;16.95;;;25.00;99.90;;;;;;5038189;28;20072;-82
2022/08/19 12:17:27;;;;;;;21.83;19.38;;;24.90;99.90;;;;;;5033434;28;20053;-81
2022/08/19 12:19:54;;;;;;;28.80;23.17;;;24.70;99.90;;;;;;5032384;28;20092;-81
2022/08/19 12:22:21;;;;;;;28.52;24.05;;;24.50;99.90;;;;;;5031002;28;20061;-81
2022/08/19 12:24:50;;;;;;;31.55;23.63;;;24.30;99.90;;;;;;5031495;28;20045;-81
2022/08/19 12:27:17;;;;;;;31.58;27.98;;;23.80;99.90;;;;;;5021402;28;20463;-81
2022/08/19 12:30:06;;;;;;;34.38;28.15;;;23.60;99.90;;;;;;5027970;28;20052;-81
2022/08/19 12:32:34;;;;;;;40.47;28.65;;;23.20;99.90;;;;;;5027508;28;20073;-82
2022/08/19 12:35:01;;;;;;;34.25;29.27;;;23.10;99.90;;;;;;5029530;28;20149;-81
2022/08/19 12:37:28;;;;;;;30.35;25.85;;;23.10;99.90;;;;;;5032820;28;20037;-81
2022/08/19 12:39:54;;;;;;;37.38;29.65;;;23.10;99.90;;;;;;5031731;28;20050;-82
2022/08/19 12:42:22;;;;;;;32.28;27.25;;;23.00;99.90;;;;;;5029981;28;20124;-81
2022/08/19 12:44:49;;;;;;;28.38;25.27;;;23.00;99.90;;;;;;5030231;28;20049;-83
2022/08/19 12:47:16;;;;;;;39.60;26.48;;;23.00;99.90;;;;;;5029833;28;20060;-83
2022/08/19 12:49:46;;;;;;;32.33;26.55;;;23.00;99.90;;;;;;5029225;28;20045;-82
2022/08/19 12:52:23;;;;;;;32.80;26.42;;;23.00;99.90;;;;;;5036985;28;20045;-82
2022/08/19 12:54:51;;;;;;;28.30;25.00;;;23.00;99.90;;;;;;5037506;28;20132;-81
2022/08/19 12:57:24;;;;;;;27.45;24.13;;;23.10;99.90;;;;;;5036461;28;20085;-81
2022/08/19 13:00:14;;;;;;;27.83;24.85;;;23.10;99.90;;;;;;5028660;28;20054;-83
2022/08/19 13:02:44;;;;;;;27.13;22.38;;;23.10;99.90;;;;;;5022182;28;20053;-82
2022/08/19 13:05:15;;;;;;;30.10;24.08;;;23.10;99.90;;;;;;5027865;28;20132;-82
2022/08/19 13:07:43;;;;;;;28.05;23.90;;;23.00;99.90;;;;;;5029743;28;20413;-81